Terminal Aerodrome Forecast
Issued by NWS

Home | Current Version | Previous Version | Text Only | Print | Product List | Glossary On
Versions: 1 2 3 4 5 6 7 8 9 10 11 12 13 14 15
017
FTPA31 PHFO 231720
TAFHMK
TAF
PHMK 231720Z 2318/2418 04012G22KT P6SM SCT020 BKN040
     FM232000 04020G30KT P6SM FEW020 SCT045
     FM240400 04012G20KT P6SM SCT020 SCT045=

USA.gov is the U.S. government's official web portal to all federal, state and local government web resources and services.